sensor_id;sensor_type;location;lat;lon;timestamp;pressure;altitude;pressure_sealevel;temperature;humidity
26489;BME280;14169;43.684;10.484;2023-01-29T00:01:15;102088.06;;;6.19;100.00
26489;BME280;14169;43.684;10.484;2023-01-29T00:03:44;102087.97;;;6.07;100.00
26489;BME280;14169;43.684;10.484;2023-01-29T00:06:09;102082.72;;;5.95;100.00
26489;BME280;14169;43.684;10.484;2023-01-29T00:08:36;102088.78;;;5.97;100.00
26489;BME280;14169;43.684;10.484;2023-01-29T00:11:03;102088.88;;;6.10;100.00
26489;BME280;14169;43.684;10.484;2023-01-29T00:13:29;102088.94;;;6.21;100.00
26489;BME280;14169;43.684;10.484;2023-01-29T00:15:56;102085.56;;;6.31;100.00
26489;BME280;14169;43.684;10.484;2023-01-29T00:18:22;102079.56;;;6.35;100.00
26489;BME280;14169;43.684;10.484;2023-01-29T00:20:48;102077.84;;;6.34;100.00
26489;BME280;14169;43.684;10.484;2023-01-29T00:23:13;102081.31;;;6.34;100.00
26489;BME280;14169;43.684;10.484;2023-01-29T00:25:40;102089.06;;;6.37;100.00
26489;BME280;14169;43.684;10.484;2023-01-29T00:28:05;102089.91;;;6.32;100.00
26489;BME280;14169;43.684;10.484;2023-01-29T00:30:31;102085.59;;;6.32;100.00
26489;BME280;14169;43.684;10.484;2023-01-29T00:32:56;102097.72;;;6.39;100.00
26489;BME280;14169;43.684;10.484;2023-01-29T00:35:21;102092.53;;;6.41;100.00
26489;BME280;14169;43.684;10.484;2023-01-29T00:37:47;102095.13;;;6.41;100.00
26489;BME280;14169;43.684;10.484;2023-01-29T00:40:12;102097.72;;;6.41;100.00
26489;BME280;14169;43.684;10.484;2023-01-29T00:42:38;102095.16;;;6.42;100.00
26489;BME280;14169;43.684;10.484;2023-01-29T00:45:21;102101.22;;;6.44;100.00
26489;BME280;14169;43.684;10.484;2023-01-29T00:47:47;102091.72;;;6.43;100.00
26489;BME280;14169;43.684;10.484;2023-01-29T00:50:12;102099.47;;;6.45;100.00
26489;BME280;14169;43.684;10.484;2023-01-29T00:52:38;102094.28;;;6.43;100.00
26489;BME280;14169;43.684;10.484;2023-01-29T00:55:07;102096.00;;;6.43;100.00
26489;BME280;14169;43.684;10.484;2023-01-29T00:57:34;102113.16;;;6.26;100.00
26489;BME280;14169;43.684;10.484;2023-01-29T01:00:01;102107.00;;;6.13;100.00
26489;BME280;14169;43.684;10.484;2023-01-29T01:02:27;102100.00;;;6.02;100.00
26489;BME280;14169;43.684;10.484;2023-01-29T01:05:12;102108.50;;;5.87;100.00
26489;BME280;14169;43.684;10.484;2023-01-29T01:07:43;102117.00;;;5.74;100.00
26489;BME280;14169;43.684;10.484;2023-01-29T01:10:12;102117.69;;;5.56;100.00
26489;BME280;14169;43.684;10.484;2023-01-29T01:13:02;102126.88;;;5.33;100.00
26489;BME280;14169;43.684;10.484;2023-01-29T01:15:31;102120.66;;;5.15;100.00
26489;BME280;14169;43.684;10.484;2023-01-29T01:17:59;102125.69;;;5.07;100.00
26489;BME280;14169;43.684;10.484;2023-01-29T01:20:26;102126.38;;;4.92;100.00
26489;BME280;14169;43.684;10.484;2023-01-29T01:22:53;102123.91;;;5.03;100.00
26489;BME280;14169;43.684;10.484;2023-01-29T01:25:19;102118.03;;;5.13;100.00
26489;BME280;14169;43.684;10.484;2023-01-29T01:27:44;102125.22;;;5.38;100.00
26489;BME280;14169;43.684;10.484;2023-01-29T01:30:12;102115.00;;;5.49;100.00
26489;BME280;14169;43.684;10.484;2023-01-29T01:32:38;102116.81;;;5.57;100.00
26489;BME280;14169;43.684;10.484;2023-01-29T01:35:04;102101.38;;;5.62;100.00
26489;BME280;14169;43.684;10.484;2023-01-29T01:37:30;102100.72;;;5.87;100.00
26489;BME280;14169;43.684;10.484;2023-01-29T01:39:55;102103.47;;;6.05;100.00
26489;BME280;14169;43.684;10.484;2023-01-29T01:42:26;102116.47;;;6.13;100.00
26489;BME280;14169;43.684;10.484;2023-01-29T01:45:00;102095.81;;;6.17;100.00
26489;BME280;14169;43.684;10.484;2023-01-29T01:50:06;102081.22;;;6.25;100.00
26489;BME280;14169;43.684;10.484;2023-01-29T01:52:34;102084.72;;;6.30;100.00
26489;BME280;14169;43.684;10.484;2023-01-29T01:55:00;102088.16;;;6.28;100.00
26489;BME280;14169;43.684;10.484;2023-01-29T01:57:28;102090.75;;;6.29;100.00
26489;BME280;14169;43.684;10.484;2023-01-29T01:59:59;102108.84;;;6.26;100.00
26489;BME280;14169;43.684;10.484;2023-01-29T02:02:34;102112.25;;;6.22;100.00
26489;BME280;14169;43.684;10.484;2023-01-29T02:05:18;102113.09;;;6.23;100.00
26489;BME280;14169;43.684;10.484;2023-01-29T02:08:02;102112.22;;;6.21;100.00
26489;BME280;14169;43.684;10.484;2023-01-29T02:10:47;102132.03;;;6.17;100.00
26489;BME280;14169;43.684;10.484;2023-01-29T02:13:14;102121.69;;;6.19;100.00
26489;BME280;14169;43.684;10.484;2023-01-29T02:15:42;102121.75;;;6.23;100.00
26489;BME280;14169;43.684;10.484;2023-01-29T02:18:12;102125.22;;;6.25;100.00
26489;BME280;14169;43.684;10.484;2023-01-29T02:20:41;102126.94;;;6.25;100.00
26489;BME280;14169;43.684;10.484;2023-01-29T02:26:02;102118.28;;;6.18;100.00
26489;BME280;14169;43.684;10.484;2023-01-29T02:28:50;102125.94;;;6.09;100.00
26489;BME280;14169;43.684;10.484;2023-01-29T02:31:42;102134.53;;;6.04;100.00
26489;BME280;14169;43.684;10.484;2023-01-29T02:37:05;102123.94;;;5.78;100.00
26489;BME280;14169;43.684;10.484;2023-01-29T02:39:37;102136.66;;;5.60;100.00
26489;BME280;14169;43.684;10.484;2023-01-29T02:42:31;102133.88;;;5.42;100.00
26489;BME280;14169;43.684;10.484;2023-01-29T02:50:16;102138.75;;;5.16;100.00
26489;BME280;14169;43.684;10.484;2023-01-29T02:55:19;102137.91;;;5.19;100.00
26489;BME280;14169;43.684;10.484;2023-01-29T02:57:48;102133.59;;;5.18;100.00
26489;BME280;14169;43.684;10.484;2023-01-29T03:00:19;102136.97;;;5.12;100.00
26489;BME280;14169;43.684;10.484;2023-01-29T03:02:50;102132.53;;;5.04;100.00
26489;BME280;14169;43.684;10.484;2023-01-29T03:05:24;102140.41;;;5.13;100.00
26489;BME280;14169;43.684;10.484;2023-01-29T03:07:56;102138.00;;;5.25;100.00
26489;BME280;14169;43.684;10.484;2023-01-29T03:13:15;102139.09;;;5.46;100.00
26489;BME280;14169;43.684;10.484;2023-01-29T03:15:48;102140.88;;;5.50;100.00
26489;BME280;14169;43.684;10.484;2023-01-29T03:18:27;102143.41;;;5.49;100.00
26489;BME280;14169;43.684;10.484;2023-01-29T03:21:07;102142.66;;;5.54;100.00
26489;BME280;14169;43.684;10.484;2023-01-29T03:23:56;102148.59;;;5.49;100.00
26489;BME280;14169;43.684;10.484;2023-01-29T03:26:42;102148.56;;;5.46;100.00
26489;BME280;14169;43.684;10.484;2023-01-29T03:29:29;102151.88;;;5.36;100.00
26489;BME280;14169;43.684;10.484;2023-01-29T03:32:16;102142.38;;;5.33;100.00
26489;BME280;14169;43.684;10.484;2023-01-29T03:34:46;102146.56;;;5.24;100.00
26489;BME280;14169;43.684;10.484;2023-01-29T03:37:19;102150.75;;;5.13;100.00
26489;BME280;14169;43.684;10.484;2023-01-29T03:39:46;102140.22;;;4.99;100.00
26489;BME280;14169;43.684;10.484;2023-01-29T03:45:13;102155.31;;;4.72;100.00
26489;BME280;14169;43.684;10.484;2023-01-29T03:47:51;102154.78;;;4.92;100.00
26489;BME280;14169;43.684;10.484;2023-01-29T03:50:46;102141.81;;;4.91;100.00
26489;BME280;14169;43.684;10.484;2023-01-29T03:58:33;102148.31;;;4.65;100.00
26489;BME280;14169;43.684;10.484;2023-01-29T04:01:07;102153.50;;;4.65;100.00
26489;BME280;14169;43.684;10.484;2023-01-29T04:06:22;102157.59;;;4.54;100.00
26489;BME280;14169;43.684;10.484;2023-01-29T04:08:58;102165.22;;;4.46;100.00
26489;BME280;14169;43.684;10.484;2023-01-29T04:11:27;102166.91;;;4.44;100.00
26489;BME280;14169;43.684;10.484;2023-01-29T04:13:54;102160.91;;;4.45;100.00
26489;BME280;14169;43.684;10.484;2023-01-29T04:16:24;102173.88;;;4.50;100.00
26489;BME280;14169;43.684;10.484;2023-01-29T04:18:52;102156.81;;;4.59;100.00
26489;BME280;14169;43.684;10.484;2023-01-29T04:21:18;102173.38;;;4.72;100.00
26489;BME280;14169;43.684;10.484;2023-01-29T04:23:44;102166.75;;;4.89;100.00
26489;BME280;14169;43.684;10.484;2023-01-29T04:37:39;102180.16;;;5.22;100.00
26489;BME280;14169;43.684;10.484;2023-01-29T04:40:16;102179.34;;;5.29;100.00
26489;BME280;14169;43.684;10.484;2023-01-29T04:45:24;102168.22;;;5.33;100.00
26489;BME280;14169;43.684;10.484;2023-01-29T04:48:21;102176.91;;;5.38;100.00
26489;BME280;14169;43.684;10.484;2023-01-29T04:53:28;102186.44;;;5.42;100.00
26489;BME280;14169;43.684;10.484;2023-01-29T04:56:25;102176.91;;;5.38;100.00
26489;BME280;14169;43.684;10.484;2023-01-29T04:59:11;102190.66;;;5.39;100.00
26489;BME280;14169;43.684;10.484;2023-01-29T05:01:39;102190.63;;;5.33;100.00
26489;BME280;14169;43.684;10.484;2023-01-29T05:04:09;102190.56;;;5.28;100.00
26489;BME280;14169;43.684;10.484;2023-01-29T05:06:38;102190.50;;;5.24;100.00
26489;BME280;14169;43.684;10.484;2023-01-29T05:09:04;102198.25;;;5.25;100.00
26489;BME280;14169;43.684;10.484;2023-01-29T05:11:31;102199.13;;;5.24;100.00
26489;BME280;14169;43.684;10.484;2023-01-29T05:13:58;102199.13;;;5.26;100.00
26489;BME280;14169;43.684;10.484;2023-01-29T05:16:32;102206.13;;;5.33;100.00
26489;BME280;14169;43.684;10.484;2023-01-29T05:19:08;102207.88;;;5.37;100.00
26489;BME280;14169;43.684;10.484;2023-01-29T05:21:33;102203.56;;;5.37;100.00
26489;BME280;14169;43.684;10.484;2023-01-29T05:26:36;102218.16;;;5.31;100.00
26489;BME280;14169;43.684;10.484;2023-01-29T05:29:21;102225.84;;;5.26;100.00
26489;BME280;14169;43.684;10.484;2023-01-29T05:31:46;102216.31;;;5.24;100.00
26489;BME280;14169;43.684;10.484;2023-01-29T05:34:11;102226.72;;;5.27;100.00
26489;BME280;14169;43.684;10.484;2023-01-29T05:36:37;102225.91;;;5.31;100.00
26489;BME280;14169;43.684;10.484;2023-01-29T05:39:02;102222.53;;;5.36;100.00
26489;BME280;14169;43.684;10.484;2023-01-29T05:41:28;102225.16;;;5.41;100.00
26489;BME280;14169;43.684;10.484;2023-01-29T05:43:53;102237.25;;;5.43;100.00
26489;BME280;14169;43.684;10.484;2023-01-29T05:46:19;102238.03;;;5.38;100.00
26489;BME280;14169;43.684;10.484;2023-01-29T05:48:44;102242.41;;;5.40;100.00
26489;BME280;14169;43.684;10.484;2023-01-29T05:51:09;102239.81;;;5.40;100.00
26489;BME280;14169;43.684;10.484;2023-01-29T05:53:35;102245.00;;;5.42;100.00
26489;BME280;14169;43.684;10.484;2023-01-29T05:56:01;102236.38;;;5.43;100.00
26489;BME280;14169;43.684;10.484;2023-01-29T05:58:29;102238.97;;;5.43;100.00
26489;BME280;14169;43.684;10.484;2023-01-29T06:00:54;102247.59;;;5.43;100.00
26489;BME280;14169;43.684;10.484;2023-01-29T06:03:20;102237.25;;;5.42;100.00
26489;BME280;14169;43.684;10.484;2023-01-29T06:05:45;102243.31;;;5.45;100.00
26489;BME280;14169;43.684;10.484;2023-01-29T06:08:11;102248.47;;;5.44;100.00
26489;BME280;14169;43.684;10.484;2023-01-29T06:10:37;102249.28;;;5.40;100.00
26489;BME280;14169;43.684;10.484;2023-01-29T06:13:02;102247.59;;;5.43;100.00
26489;BME280;14169;43.684;10.484;2023-01-29T06:15:28;102250.25;;;5.49;100.00
26489;BME280;14169;43.684;10.484;2023-01-29T06:17:54;102250.31;;;5.52;100.00
26489;BME280;14169;43.684;10.484;2023-01-29T06:20:20;102257.22;;;5.55;100.00
26489;BME280;14169;43.684;10.484;2023-01-29T06:22:45;102262.44;;;5.59;100.00
26489;BME280;14169;43.684;10.484;2023-01-29T06:25:11;102273.66;;;5.58;100.00
26489;BME280;14169;43.684;10.484;2023-01-29T06:27:36;102267.53;;;5.55;100.00
26489;BME280;14169;43.684;10.484;2023-01-29T06:30:07;102271.91;;;5.57;100.00
26489;BME280;14169;43.684;10.484;2023-01-29T06:32:33;102273.59;;;5.55;100.00
26489;BME280;14169;43.684;10.484;2023-01-29T06:34:58;102277.84;;;5.52;100.00
26489;BME280;14169;43.684;10.484;2023-01-29T06:37:24;102282.94;;;5.46;100.00
26489;BME280;14169;43.684;10.484;2023-01-29T06:39:49;102286.34;;;5.45;100.00
26489;BME280;14169;43.684;10.484;2023-01-29T06:42:15;102291.50;;;5.42;100.00
26489;BME280;14169;43.684;10.484;2023-01-29T06:44:40;102287.16;;;5.39;100.00
26489;BME280;14169;43.684;10.484;2023-01-29T06:47:05;102299.25;;;5.42;100.00
26489;BME280;14169;43.684;10.484;2023-01-29T06:49:31;102299.25;;;5.42;100.00
26489;BME280;14169;43.684;10.484;2023-01-29T06:51:56;102301.84;;;5.42;100.00
26489;BME280;14169;43.684;10.484;2023-01-29T06:54:22;102308.81;;;5.49;100.00
26489;BME280;14169;43.684;10.484;2023-01-29T06:56:47;102312.34;;;5.54;100.00
26489;BME280;14169;43.684;10.484;2023-01-29T06:59:13;102312.44;;;5.61;100.00
26489;BME280;14169;43.684;10.484;2023-01-29T07:01:39;102317.63;;;5.63;100.00
26489;BME280;14169;43.684;10.484;2023-01-29T07:04:06;102320.41;;;5.76;100.00
26489;BME280;14169;43.684;10.484;2023-01-29T07:06:31;102327.44;;;5.87;100.00
26489;BME280;14169;43.684;10.484;2023-01-29T07:08:57;102329.25;;;5.95;100.00
26489;BME280;14169;43.684;10.484;2023-01-29T07:11:23;102330.28;;;6.08;100.00
26489;BME280;14169;43.684;10.484;2023-01-29T07:13:48;102328.66;;;6.14;100.00
26489;BME280;14169;43.684;10.484;2023-01-29T07:16:14;102323.53;;;6.20;100.00
26489;BME280;14169;43.684;10.484;2023-01-29T07:18:40;102325.34;;;6.27;100.00
26489;BME280;14169;43.684;10.484;2023-01-29T07:21:06;102332.34;;;6.36;100.00
26489;BME280;14169;43.684;10.484;2023-01-29T07:23:32;102336.72;;;6.43;100.00
26489;BME280;14169;43.684;10.484;2023-01-29T07:26:04;102341.19;;;6.57;100.00
26489;BME280;14169;43.684;10.484;2023-01-29T07:28:30;102336.00;;;6.54;100.00
26489;BME280;14169;43.684;10.484;2023-01-29T07:30:58;102341.25;;;6.63;100.00
26489;BME280;14169;43.684;10.484;2023-01-29T07:33:24;102337.00;;;6.70;100.00
26489;BME280;14169;43.684;10.484;2023-01-29T07:35:49;102344.91;;;6.84;100.00
26489;BME280;14169;43.684;10.484;2023-01-29T07:38:15;102345.84;;;6.95;100.00
26489;BME280;14169;43.684;10.484;2023-01-29T07:40:40;102339.84;;;6.97;100.00
26489;BME280;14169;43.684;10.484;2023-01-29T07:43:06;102351.13;;;7.04;100.00
26489;BME280;14169;43.684;10.484;2023-01-29T07:45:34;102357.34;;;7.21;100.00
26489;BME280;14169;43.684;10.484;2023-01-29T07:48:00;102348.72;;;7.25;100.00
26489;BME280;14169;43.684;10.484;2023-01-29T07:50:26;102361.81;;;7.43;100.00
26489;BME280;14169;43.684;10.484;2023-01-29T07:52:54;102354.16;;;7.60;100.00
26489;BME280;14169;43.684;10.484;2023-01-29T07:55:20;102364.66;;;7.76;100.00
26489;BME280;14169;43.684;10.484;2023-01-29T07:57:46;102375.06;;;7.87;100.00
26489;BME280;14169;43.684;10.484;2023-01-29T08:00:12;102376.84;;;7.97;100.00
26489;BME280;14169;43.684;10.484;2023-01-29T08:02:39;102370.81;;;8.01;100.00
26489;BME280;14169;43.684;10.484;2023-01-29T08:05:05;102377.81;;;8.17;100.00
26489;BME280;14169;43.684;10.484;2023-01-29T08:07:30;102383.06;;;8.26;100.00
26489;BME280;14169;43.684;10.484;2023-01-29T08:09:56;102381.34;;;8.37;98.57
26489;BME280;14169;43.684;10.484;2023-01-29T08:12:21;102363.19;;;8.45;96.21
26489;BME280;14169;43.684;10.484;2023-01-29T08:14:46;102382.31;;;8.62;95.17
26489;BME280;14169;43.684;10.484;2023-01-29T08:17:12;102384.03;;;8.70;93.54
26489;BME280;14169;43.684;10.484;2023-01-29T08:19:38;102378.88;;;8.82;92.02
26489;BME280;14169;43.684;10.484;2023-01-29T08:22:04;102384.94;;;8.84;90.80
26489;BME280;14169;43.684;10.484;2023-01-29T08:24:30;102386.75;;;9.08;90.21
26489;BME280;14169;43.684;10.484;2023-01-29T08:26:55;102389.34;;;9.14;88.24
26489;BME280;14169;43.684;10.484;2023-01-29T08:29:20;102390.22;;;9.23;88.23
26489;BME280;14169;43.684;10.484;2023-01-29T08:31:46;102385.88;;;9.18;87.72
26489;BME280;14169;43.684;10.484;2023-01-29T08:34:11;102383.28;;;9.19;86.97
26489;BME280;14169;43.684;10.484;2023-01-29T08:36:37;102375.44;;;9.36;86.42
26489;BME280;14169;43.684;10.484;2023-01-29T08:39:02;102378.06;;;9.36;85.32
26489;BME280;14169;43.684;10.484;2023-01-29T08:41:28;102372.88;;;9.39;85.13
26489;BME280;14169;43.684;10.484;2023-01-29T08:43:53;102380.66;;;9.42;85.07
26489;BME280;14169;43.684;10.484;2023-01-29T08:46:18;102382.38;;;9.55;85.58
26489;BME280;14169;43.684;10.484;2023-01-29T08:48:44;102386.69;;;9.71;85.02
26489;BME280;14169;43.684;10.484;2023-01-29T08:51:09;102374.53;;;9.70;83.78
26489;BME280;14169;43.684;10.484;2023-01-29T08:53:35;102380.59;;;9.81;84.53
26489;BME280;14169;43.684;10.484;2023-01-29T08:56:00;102390.16;;;9.78;83.40
26489;BME280;14169;43.684;10.484;2023-01-29T08:58:25;102384.06;;;9.83;83.72
26489;BME280;14169;43.684;10.484;2023-01-29T09:00:51;102395.31;;;9.99;84.38
26489;BME280;14169;43.684;10.484;2023-01-29T09:03:16;102399.63;;;10.00;83.21
26489;BME280;14169;43.684;10.484;2023-01-29T09:05:42;102401.28;;;10.22;81.83
26489;BME280;14169;43.684;10.484;2023-01-29T09:08:08;102403.00;;;10.31;81.32
26489;BME280;14169;43.684;10.484;2023-01-29T09:10:34;102405.59;;;10.35;80.59
26489;BME280;14169;43.684;10.484;2023-01-29T09:13:00;102408.16;;;10.38;79.72
26489;BME280;14169;43.684;10.484;2023-01-29T09:15:25;102415.06;;;10.53;79.71
26489;BME280;14169;43.684;10.484;2023-01-29T09:17:51;102408.97;;;10.55;78.62
26489;BME280;14169;43.684;10.484;2023-01-29T09:20:17;102396.81;;;10.54;78.94
26489;BME280;14169;43.684;10.484;2023-01-29T09:22:44;102428.09;;;10.56;79.38
26489;BME280;14169;43.684;10.484;2023-01-29T09:25:09;102412.44;;;10.59;78.46
26489;BME280;14169;43.684;10.484;2023-01-29T09:27:35;102410.69;;;10.58;78.79
26489;BME280;14169;43.684;10.484;2023-01-29T09:30:01;102424.53;;;10.73;78.83
26489;BME280;14169;43.684;10.484;2023-01-29T09:32:26;102425.28;;;10.93;79.10
26489;BME280;14169;43.684;10.484;2023-01-29T09:34:55;102419.03;;;11.19;77.28
26489;BME280;14169;43.684;10.484;2023-01-29T09:37:20;102433.75;;;11.24;76.39
26489;BME280;14169;43.684;10.484;2023-01-29T09:39:47;102412.97;;;11.14;74.42
26489;BME280;14169;43.684;10.484;2023-01-29T09:45:00;102423.41;;;11.15;74.53
26489;BME280;14169;43.684;10.484;2023-01-29T09:47:27;102425.06;;;11.25;74.78
26489;BME280;14169;43.684;10.484;2023-01-29T09:52:56;102424.84;;;11.51;73.11
26489;BME280;14169;43.684;10.484;2023-01-29T09:55:31;102424.75;;;11.61;73.05
26489;BME280;14169;43.684;10.484;2023-01-29T10:06:27;102415.56;;;12.11;67.91
26489;BME280;14169;43.684;10.484;2023-01-29T10:14:58;102414.31;;;12.42;67.19
26489;BME280;14169;43.684;10.484;2023-01-29T10:25:33;102396.13;;;13.50;62.79
26489;BME280;14169;43.684;10.484;2023-01-29T10:28:00;102396.09;;;13.52;60.62
26489;BME280;14169;43.684;10.484;2023-01-29T10:30:40;102390.97;;;13.45;60.28
26489;BME280;14169;43.684;10.484;2023-01-29T10:33:11;102385.25;;;13.22;59.34
26489;BME280;14169;43.684;10.484;2023-01-29T10:35:48;102390.47;;;13.24;60.83
26489;BME280;14169;43.684;10.484;2023-01-29T10:38:40;102388.56;;;13.33;60.37
26489;BME280;14169;43.684;10.484;2023-01-29T10:44:00;102375.50;;;13.32;58.80
26489;BME280;14169;43.684;10.484;2023-01-29T10:54:35;102377.88;;;14.36;55.88
26489;BME280;14169;43.684;10.484;2023-01-29T11:02:18;102358.38;;;14.49;53.29
26489;BME280;14169;43.684;10.484;2023-01-29T11:04:45;102360.72;;;14.61;53.94
26489;BME280;14169;43.684;10.484;2023-01-29T11:07:12;102344.16;;;14.59;52.81
26489;BME280;14169;43.684;10.484;2023-01-29T11:10:00;102342.66;;;14.47;53.05
26489;BME280;14169;43.684;10.484;2023-01-29T11:12:29;102334.38;;;14.27;53.42
26489;BME280;14169;43.684;10.484;2023-01-29T11:15:04;102338.66;;;14.31;54.52
26489;BME280;14169;43.684;10.484;2023-01-29T11:17:31;102333.41;;;14.29;53.51
26489;BME280;14169;43.684;10.484;2023-01-29T11:19:57;102336.66;;;14.42;53.65
26489;BME280;14169;43.684;10.484;2023-01-29T11:22:24;102331.53;;;14.38;52.91
26489;BME280;14169;43.684;10.484;2023-01-29T11:25:25;102335.75;;;14.45;52.80
26489;BME280;14169;43.684;10.484;2023-01-29T11:27:55;102335.97;;;14.72;52.41
26489;BME280;14169;43.684;10.484;2023-01-29T11:30:31;102332.38;;;15.11;51.51
26489;BME280;14169;43.684;10.484;2023-01-29T11:35:29;102314.03;;;15.10;48.72
26489;BME280;14169;43.684;10.484;2023-01-29T11:38:06;102316.72;;;15.08;49.02
26489;BME280;14169;43.684;10.484;2023-01-29T11:40:38;102320.78;;;15.20;48.49
26489;BME280;14169;43.684;10.484;2023-01-29T11:45:38;102310.41;;;15.49;48.37
26489;BME280;14169;43.684;10.484;2023-01-29T11:48:04;102302.59;;;15.77;48.76
26489;BME280;14169;43.684;10.484;2023-01-29T11:50:36;102303.50;;;16.07;47.16
26489;BME280;14169;43.684;10.484;2023-01-29T11:53:02;102295.06;;;15.95;46.73
26489;BME280;14169;43.684;10.484;2023-01-29T11:55:33;102293.47;;;15.90;46.30
26489;BME280;14169;43.684;10.484;2023-01-29T11:58:05;102279.13;;;15.71;46.13
26489;BME280;14169;43.684;10.484;2023-01-29T12:00:33;102279.44;;;15.60;47.08
26489;BME280;14169;43.684;10.484;2023-01-29T12:05:31;102261.13;;;15.88;46.43
26489;BME280;14169;43.684;10.484;2023-01-29T12:07:59;102266.09;;;15.68;46.84
26489;BME280;14169;43.684;10.484;2023-01-29T12:10:35;102263.13;;;15.80;48.11
26489;BME280;14169;43.684;10.484;2023-01-29T12:15:36;102248.38;;;16.03;45.11
26489;BME280;14169;43.684;10.484;2023-01-29T12:20:36;102247.88;;;16.20;43.63
26489;BME280;14169;43.684;10.484;2023-01-29T12:23:18;102251.97;;;16.29;44.05
26489;BME280;14169;43.684;10.484;2023-01-29T12:26:09;102242.50;;;15.95;43.96
26489;BME280;14169;43.684;10.484;2023-01-29T12:34:28;102228.16;;;16.06;44.38
26489;BME280;14169;43.684;10.484;2023-01-29T12:37:23;102229.28;;;15.97;44.61
26489;BME280;14169;43.684;10.484;2023-01-29T12:39:50;102228.66;;;16.18;45.78
26489;BME280;14169;43.684;10.484;2023-01-29T12:42:20;102223.19;;;16.24;45.91
26489;BME280;14169;43.684;10.484;2023-01-29T12:44:56;102216.88;;;16.30;44.74
26489;BME280;14169;43.684;10.484;2023-01-29T12:47:34;102212.34;;;16.07;43.93
26489;BME280;14169;43.684;10.484;2023-01-29T12:50:05;102220.06;;;15.84;44.29
26489;BME280;14169;43.684;10.484;2023-01-29T12:52:38;102211.75;;;15.97;44.72
26489;BME280;14169;43.684;10.484;2023-01-29T12:55:29;102212.00;;;16.18;43.70
26489;BME280;14169;43.684;10.484;2023-01-29T12:58:01;102209.94;;;16.27;44.20
26489;BME280;14169;43.684;10.484;2023-01-29T13:00:32;102204.69;;;16.27;44.08
26489;BME280;14169;43.684;10.484;2023-01-29T13:06:08;102203.91;;;16.51;43.74
26489;BME280;14169;43.684;10.484;2023-01-29T13:08:28;102184.69;;;16.22;43.55
26489;BME280;14169;43.684;10.484;2023-01-29T13:10:57;102186.78;;;16.12;43.70
26489;BME280;14169;43.684;10.484;2023-01-29T13:16:06;102189.97;;;15.94;44.45
26489;BME280;14169;43.684;10.484;2023-01-29T13:21:22;102179.91;;;16.34;43.60
26489;BME280;14169;43.684;10.484;2023-01-29T13:23:51;102174.50;;;16.40;43.15
26489;BME280;14169;43.684;10.484;2023-01-29T13:26:21;102181.84;;;16.55;42.80
26489;BME280;14169;43.684;10.484;2023-01-29T13:28:48;102183.22;;;16.67;43.45
26489;BME280;14169;43.684;10.484;2023-01-29T13:31:35;102174.09;;;16.77;42.63
26489;BME280;14169;43.684;10.484;2023-01-29T13:34:15;102184.06;;;17.17;41.81
26489;BME280;14169;43.684;10.484;2023-01-29T13:36:52;102185.75;;;17.44;40.77
26489;BME280;14169;43.684;10.484;2023-01-29T13:39:46;102185.09;;;17.84;40.61
26489;BME280;14169;43.684;10.484;2023-01-29T13:42:20;102180.22;;;18.39;40.35
26489;BME280;14169;43.684;10.484;2023-01-29T13:44:49;102182.41;;;18.50;39.15
26489;BME280;14169;43.684;10.484;2023-01-29T13:47:27;102190.44;;;18.47;38.25
26489;BME280;14169;43.684;10.484;2023-01-29T13:50:05;102189.22;;;18.56;38.98
26489;BME280;14169;43.684;10.484;2023-01-29T13:52:41;102192.72;;;18.34;38.39
26489;BME280;14169;43.684;10.484;2023-01-29T13:57:48;102191.00;;;18.33;38.33
26489;BME280;14169;43.684;10.484;2023-01-29T14:10:39;102180.06;;;18.84;38.16
26489;BME280;14169;43.684;10.484;2023-01-29T14:16:31;102171.00;;;18.49;38.51
26489;BME280;14169;43.684;10.484;2023-01-29T14:18:29;102180.53;;;18.32;38.23
26489;BME280;14169;43.684;10.484;2023-01-29T14:23:39;102175.41;;;18.49;38.74
26489;BME280;14169;43.684;10.484;2023-01-29T14:26:19;102185.25;;;18.24;38.32
26489;BME280;14169;43.684;10.484;2023-01-29T14:29:12;102190.31;;;18.28;39.05
26489;BME280;14169;43.684;10.484;2023-01-29T14:31:45;102191.25;;;18.27;39.11
26489;BME280;14169;43.684;10.484;2023-01-29T14:36:43;102197.41;;;18.28;38.84
26489;BME280;14169;43.684;10.484;2023-01-29T14:39:46;102198.69;;;18.39;39.06
26489;BME280;14169;43.684;10.484;2023-01-29T14:42:16;102190.84;;;18.15;39.00
26489;BME280;14169;43.684;10.484;2023-01-29T14:49:56;102193.50;;;18.58;39.37
26489;BME280;14169;43.684;10.484;2023-01-29T14:52:28;102205.16;;;18.52;39.15
26489;BME280;14169;43.684;10.484;2023-01-29T14:54:58;102199.59;;;18.60;39.06
26489;BME280;14169;43.684;10.484;2023-01-29T14:57:25;102206.47;;;18.42;39.51
26489;BME280;14169;43.684;10.484;2023-01-29T14:59:59;102209.88;;;18.44;38.97
26489;BME280;14169;43.684;10.484;2023-01-29T15:02:37;102207.84;;;18.08;39.18
26489;BME280;14169;43.684;10.484;2023-01-29T15:05:08;102205.81;;;17.93;39.24
26489;BME280;14169;43.684;10.484;2023-01-29T15:07:55;102215.00;;;17.59;39.91
26489;BME280;14169;43.684;10.484;2023-01-29T15:10:35;102214.28;;;17.56;40.15
26489;BME280;14169;43.684;10.484;2023-01-29T15:13:11;102213.47;;;17.54;40.88
26489;BME280;14169;43.684;10.484;2023-01-29T15:15:46;102219.25;;;17.63;40.86
26489;BME280;14169;43.684;10.484;2023-01-29T15:18:16;102217.06;;;17.75;40.71
26489;BME280;14169;43.684;10.484;2023-01-29T15:20:43;102212.31;;;17.38;41.55
26489;BME280;14169;43.684;10.484;2023-01-29T15:23:23;102211.56;;;17.10;40.99